Time;durP1;ratioP1;P1;durP2;ratioP2;P2;SDS_P1;SDS_P2;PMS_P1;PMS_P2;Temp;Humidity;BMP_temperature;BMP_pressure;BME280_temperature;BME280_humidity;BME280_pressure;Samples;Min_cycle;Max_cycle;Signal;HPM_P1;HPM_P2
2023/11/04 00:00:30;;;;;;;0.90;0.80;;;;;;;18.57;59.26;96169.19;103524;1282;75250;-37
2023/11/04 00:03:01;;;;;;;1.20;1.00;;;;;;;18.57;59.39;96176.16;103747;1282;66067;-38
2023/11/04 00:05:28;;;;;;;1.00;0.90;;;;;;;18.57;59.31;96179.17;103538;1280;72690;-38
2023/11/04 00:07:55;;;;;;;1.30;1.00;;;;;;;18.57;59.29;96186.68;103436;1282;62018;-37
2023/11/04 00:10:22;;;;;;;0.80;0.80;;;;;;;18.56;59.30;96197.60;104057;1280;62170;-37
2023/11/04 00:12:49;;;;;;;0.90;0.80;;;;;;;18.56;59.30;96203.73;103583;1282;75219;-37
2023/11/04 00:15:16;;;;;;;1.70;1.10;;;;;;;18.56;59.22;96210.70;103613;1282;66018;-37
2023/11/04 00:17:44;;;;;;;1.30;1.20;;;;;;;18.56;59.31;96213.80;103600;1280;72488;-37
2023/11/04 00:20:11;;;;;;;1.20;1.10;;;;;;;18.56;59.32;96211.16;103608;1279;62100;-37
2023/11/04 00:22:37;;;;;;;1.00;0.90;;;;;;;18.56;59.23;96210.16;103604;1281;62062;-37
2023/11/04 00:25:05;;;;;;;0.90;0.80;;;;;;;18.55;59.30;96208.98;103506;1279;74253;-37
2023/11/04 00:27:32;;;;;;;2.30;1.00;;;;;;;18.54;59.28;96211.84;103535;1280;66152;-37
2023/11/04 00:29:58;;;;;;;1.00;1.00;;;;;;;18.55;59.28;96224.95;103569;1280;72467;-37
2023/11/04 00:32:25;;;;;;;0.90;0.80;;;;;;;18.54;59.28;96222.70;103785;1282;62187;-37
2023/11/04 00:34:51;;;;;;;1.20;1.00;;;;;;;18.54;59.36;96213.87;103849;1280;62126;-37
2023/11/04 00:37:18;;;;;;;1.20;1.00;;;;;;;18.54;59.27;96221.08;103813;1281;75483;-37
2023/11/04 00:39:48;;;;;;;1.10;1.00;;;;;;;18.55;59.21;96230.06;103782;1280;65479;-37
2023/11/04 00:42:15;;;;;;;1.20;1.00;;;;;;;18.53;59.31;96232.69;103878;1280;72458;-37
2023/11/04 00:44:41;;;;;;;1.20;1.10;;;;;;;18.54;59.26;96236.56;103820;1282;62091;-37
2023/11/04 00:47:08;;;;;;;0.90;0.90;;;;;;;18.53;59.35;96242.46;103869;1280;62085;-37
2023/11/04 00:49:37;;;;;;;1.20;1.00;;;;;;;18.53;59.24;96249.19;103802;1278;74223;-37
2023/11/04 00:52:04;;;;;;;1.20;1.10;;;;;;;18.53;59.32;96251.52;103754;1282;66172;-37
2023/11/04 00:54:31;;;;;;;1.00;0.90;;;;;;;18.53;59.31;96254.21;103847;1280;72374;-37
2023/11/04 00:56:58;;;;;;;1.20;0.90;;;;;;;18.52;59.15;96246.95;103881;1283;62133;-37
2023/11/04 00:59:24;;;;;;;1.70;1.10;;;;;;;18.52;59.22;96237.65;103830;1280;62117;-37
2023/11/04 01:01:51;;;;;;;0.90;0.90;;;;;;;18.52;59.24;96240.73;103801;1280;62081;-37
2023/11/04 01:04:17;;;;;;;1.30;1.10;;;;;;;18.52;59.30;96248.25;103823;1280;66148;-39
2023/11/04 01:06:44;;;;;;;1.10;1.00;;;;;;;18.52;59.18;96248.34;106589;1280;71385;-38
2023/11/04 01:09:13;;;;;;;1.40;1.00;;;;;;;18.51;59.17;96251.28;104478;1282;62187;-37
2023/11/04 01:11:39;;;;;;;1.00;0.90;;;;;;;18.52;59.23;96257.02;103615;1280;62114;-41
2023/11/04 01:14:06;;;;;;;1.10;1.00;;;;;;;18.52;59.22;96270.10;103838;1280;75402;-39
2023/11/04 01:16:33;;;;;;;1.30;1.10;;;;;;;18.52;59.24;96270.41;103820;1282;65449;-38
2023/11/04 01:18:59;;;;;;;1.00;0.90;;;;;;;18.52;59.21;96282.17;103824;1280;72457;-39
2023/11/04 01:21:26;;;;;;;0.90;0.80;;;;;;;18.51;59.21;96282.80;103726;1285;62076;-39
2023/11/04 01:23:54;;;;;;;0.90;0.90;;;;;;;18.51;59.25;96284.20;103810;1280;62203;-39
2023/11/04 01:26:21;;;;;;;1.70;1.00;;;;;;;18.52;59.19;96279.63;103826;1280;75318;-39
2023/11/04 01:28:47;;;;;;;0.90;0.90;;;;;;;18.52;59.16;96278.08;103790;1282;62041;-39
2023/11/04 01:31:14;;;;;;;0.90;0.90;;;;;;;18.51;59.10;96275.21;103849;1280;72727;-39
2023/11/04 01:33:40;;;;;;;1.30;1.00;;;;;;;18.51;59.21;96276.45;103775;1282;62088;-39
2023/11/04 01:36:07;;;;;;;1.00;0.90;;;;;;;18.51;59.19;96272.11;103760;1279;62168;-39
2023/11/04 01:38:34;;;;;;;1.40;1.00;;;;;;;18.50;59.19;96274.89;103796;1280;75258;-39
2023/11/04 01:41:01;;;;;;;0.80;0.80;;;;;;;18.50;59.19;96279.62;103816;1279;62002;-36
2023/11/04 01:43:29;;;;;;;0.80;0.80;;;;;;;18.50;59.20;96282.64;103843;1280;72692;-37
2023/11/04 01:46:09;;;;;;;1.10;1.00;;;;;;;18.50;59.10;96283.95;103834;1278;62005;-37
2023/11/04 01:48:36;;;;;;;0.90;0.70;;;;;;;18.49;59.19;96277.21;103840;1280;62194;-37
2023/11/04 01:51:04;;;;;;;0.90;0.80;;;;;;;18.49;59.26;96270.55;103842;1280;74153;-37
2023/11/04 01:53:31;;;;;;;1.40;1.00;;;;;;;18.49;59.23;96271.48;103672;1280;65082;-37
2023/11/04 01:55:59;;;;;;;1.20;1.00;;;;;;;18.49;59.18;96264.28;103812;1278;72558;-37
2023/11/04 01:58:26;;;;;;;1.30;1.10;;;;;;;18.48;59.18;96265.67;103612;1280;62003;-37
2023/11/04 02:00:53;;;;;;;1.00;0.90;;;;;;;18.47;59.20;96263.18;103443;1280;62190;-37
2023/11/04 02:03:20;;;;;;;1.00;0.90;;;;;;;18.47;59.14;96264.20;103632;1285;75469;-37
2023/11/04 02:05:47;;;;;;;1.30;1.00;;;;;;;18.47;59.10;96266.36;103879;1282;66245;-37
2023/11/04 02:08:14;;;;;;;1.10;0.90;;;;;;;18.47;59.22;96277.12;103685;1280;72620;-37
2023/11/04 02:10:40;;;;;;;1.00;0.90;;;;;;;18.46;59.15;96275.89;103598;1282;62102;-37
2023/11/04 02:13:07;;;;;;;1.50;1.10;;;;;;;18.46;59.16;96277.21;103381;1280;62201;-37
2023/11/04 02:15:34;;;;;;;1.10;1.00;;;;;;;18.46;59.08;96275.95;103675;1280;75409;-38
2023/11/04 02:18:00;;;;;;;0.80;0.80;;;;;;;18.46;59.22;96275.19;103515;1282;66324;-37
2023/11/04 02:20:27;;;;;;;1.10;1.00;;;;;;;18.46;59.13;96284.87;103938;1280;72642;-37
2023/11/04 02:22:53;;;;;;;1.10;1.00;;;;;;;18.46;59.19;96286.40;103451;1285;62152;-37
2023/11/04 02:25:20;;;;;;;1.10;1.00;;;;;;;18.46;59.09;96287.20;103793;1278;62194;-37
2023/11/04 02:27:47;;;;;;;1.20;1.00;;;;;;;18.46;59.15;96281.15;103757;1281;75467;-37
2023/11/04 02:30:14;;;;;;;0.90;0.90;;;;;;;18.45;59.06;96285.48;103527;1282;66003;-37
2023/11/04 02:32:40;;;;;;;2.40;0.90;;;;;;;18.45;59.08;96294.77;103594;1280;72652;-37
2023/11/04 02:35:07;;;;;;;0.90;0.90;;;;;;;18.45;59.11;96297.14;103498;1282;62204;-38
2023/11/04 02:37:34;;;;;;;0.90;0.90;;;;;;;18.44;59.20;96302.73;103393;1280;62175;-37
2023/11/04 02:40:00;;;;;;;1.10;0.90;;;;;;;18.44;59.04;96317.06;103510;1280;62104;-37
2023/11/04 02:42:27;;;;;;;0.90;0.90;;;;;;;18.43;59.14;96315.35;103612;1282;66180;-37
2023/11/04 02:44:54;;;;;;;1.20;1.00;;;;;;;18.44;59.15;96317.76;103634;1280;72587;-37
2023/11/04 02:47:20;;;;;;;1.80;1.10;;;;;;;18.43;59.08;96316.91;103577;1282;62101;-38
2023/11/04 02:49:47;;;;;;;1.20;1.10;;;;;;;18.44;59.08;96323.33;103400;1280;62123;-37
2023/11/04 02:52:13;;;;;;;0.70;0.70;;;;;;;18.43;59.14;96324.64;103422;1282;75313;-37
2023/11/04 02:54:40;;;;;;;1.00;0.90;;;;;;;18.43;59.16;96323.80;103476;1282;65404;-37
2023/11/04 02:57:07;;;;;;;1.00;0.90;;;;;;;18.43;59.14;96318.98;103656;1280;72666;-37
2023/11/04 02:59:34;;;;;;;1.00;0.90;;;;;;;18.42;59.07;96325.25;103601;1282;62120;-37
2023/11/04 03:02:01;;;;;;;1.00;0.90;;;;;;;18.43;59.16;96334.16;103417;1281;62082;-37
2023/11/04 03:04:28;;;;;;;1.10;1.00;;;;;;;18.43;59.05;96335.32;103688;1281;75492;-37
2023/11/04 03:06:55;;;;;;;1.00;1.00;;;;;;;18.43;59.12;96330.98;103887;1280;66148;-37
2023/11/04 03:09:22;;;;;;;0.90;0.90;;;;;;;18.42;59.09;96333.14;103724;1280;72658;-37
2023/11/04 03:11:48;;;;;;;1.10;1.00;;;;;;;18.42;59.11;96339.81;103564;1282;62063;-37
2023/11/04 03:14:15;;;;;;;1.30;1.20;;;;;;;18.42;59.18;96343.99;103436;1280;62187;-37
2023/11/04 03:16:42;;;;;;;1.10;0.90;;;;;;;18.41;59.09;96339.03;103647;1281;75554;-37
2023/11/04 03:19:08;;;;;;;1.00;0.90;;;;;;;18.41;59.13;96329.98;103562;1282;62132;-37
2023/11/04 03:21:35;;;;;;;0.80;0.70;;;;;;;18.40;59.07;96320.90;103601;1280;71429;-37
2023/11/04 03:24:02;;;;;;;1.10;1.00;;;;;;;18.40;59.04;96309.90;103639;1280;62044;-37
2023/11/04 03:26:29;;;;;;;0.90;0.90;;;;;;;18.40;59.09;96299.37;103815;1282;62079;-37
2023/11/04 03:28:56;;;;;;;0.90;0.90;;;;;;;18.39;59.04;96286.83;103843;1282;75380;-37
2023/11/04 03:31:22;;;;;;;1.10;1.00;;;;;;;18.39;59.04;96291.31;103820;1282;65790;-37
2023/11/04 03:33:49;;;;;;;1.20;1.10;;;;;;;18.39;59.04;96290.85;103814;1280;73185;-37
2023/11/04 03:36:16;;;;;;;1.10;1.00;;;;;;;18.38;59.09;96291.55;103559;1282;62084;-37
2023/11/04 03:38:42;;;;;;;0.90;0.90;;;;;;;18.39;59.04;96289.00;103426;1282;62205;-37
2023/11/04 03:41:09;;;;;;;1.30;1.10;;;;;;;18.38;58.99;96286.98;103517;1282;75951;-37
2023/11/04 03:43:35;;;;;;;1.20;1.10;;;;;;;18.38;59.01;96286.20;103586;1280;62212;-38
2023/11/04 03:46:03;;;;;;;0.80;0.80;;;;;;;18.38;59.05;96292.02;105336;1282;62082;-39
2023/11/04 03:48:30;;;;;;;1.00;0.90;;;;;;;18.39;59.06;96300.39;104617;1282;62235;-38
2023/11/04 03:50:57;;;;;;;1.00;0.90;;;;;;;18.38;59.01;96299.52;103886;1280;62213;-39
2023/11/04 03:53:24;;;;;;;1.10;1.00;;;;;;;18.38;59.06;96298.04;103753;1281;75484;-38
2023/11/04 03:55:50;;;;;;;1.10;1.00;;;;;;;18.37;59.05;96301.21;103836;1282;62031;-38
2023/11/04 03:58:17;;;;;;;1.10;1.00;;;;;;;18.38;59.01;96304.23;103836;1280;72655;-38
2023/11/04 04:00:44;;;;;;;1.30;1.00;;;;;;;18.38;59.03;96308.90;103837;1280;62152;-37
2023/11/04 04:03:11;;;;;;;0.80;0.80;;;;;;;18.38;59.04;96320.73;103753;1280;62120;-37
2023/11/04 04:05:37;;;;;;;2.80;1.00;;;;;;;18.37;59.04;96323.99;103855;1279;75299;-37
2023/11/04 04:08:04;;;;;;;0.80;0.80;;;;;;;18.37;59.08;96321.05;103545;1280;65872;-37
2023/11/04 04:10:31;;;;;;;1.00;0.90;;;;;;;18.37;59.01;96316.02;103691;1282;72580;-37
2023/11/04 04:12:57;;;;;;;1.00;0.80;;;;;;;18.36;59.07;96315.02;103670;1282;62139;-37
2023/11/04 04:15:24;;;;;;;1.10;0.90;;;;;;;18.37;59.00;96319.49;103517;1279;62170;-37
2023/11/04 04:17:51;;;;;;;0.80;0.80;;;;;;;18.36;58.94;96320.50;103667;1282;75284;-38
2023/11/04 04:20:18;;;;;;;1.50;1.10;;;;;;;18.36;58.99;96320.66;103774;1282;66016;-37
2023/11/04 04:22:44;;;;;;;1.00;0.90;;;;;;;18.36;59.01;96322.59;103873;1280;72446;-37
2023/11/04 04:25:11;;;;;;;1.30;0.90;;;;;;;18.35;58.94;96319.94;103806;1282;62117;-37
2023/11/04 04:27:38;;;;;;;1.10;1.00;;;;;;;18.35;58.94;96320.41;103737;1280;62140;-37
2023/11/04 04:30:05;;;;;;;0.80;0.80;;;;;;;18.35;59.01;96322.89;103377;1282;75269;-39
2023/11/04 04:32:32;;;;;;;1.40;0.90;;;;;;;18.36;59.13;96326.23;103750;1280;66282;-39
2023/11/04 04:34:59;;;;;;;1.10;1.00;;;;;;;18.35;59.03;96312.13;103842;1282;72655;-37
2023/11/04 04:37:28;;;;;;;1.10;1.00;;;;;;;18.35;59.08;96317.63;103702;1282;62095;-37
2023/11/04 04:39:55;;;;;;;0.90;0.90;;;;;;;18.34;58.96;96319.16;103775;1280;62052;-37
2023/11/04 04:42:21;;;;;;;1.10;1.00;;;;;;;18.34;59.00;96317.63;103654;1280;75214;-38
2023/11/04 04:44:48;;;;;;;1.20;0.90;;;;;;;18.34;58.94;96305.86;103679;1280;66125;-37
2023/11/04 04:47:14;;;;;;;1.80;1.00;;;;;;;18.34;58.89;96303.83;103728;1280;72511;-38
2023/11/04 04:49:41;;;;;;;0.80;0.80;;;;;;;18.33;58.91;96305.08;103761;1280;62120;-36
2023/11/04 04:52:08;;;;;;;1.10;1.00;;;;;;;18.32;59.02;96299.04;103784;1282;62194;-36
2023/11/04 04:54:34;;;;;;;0.90;0.90;;;;;;;18.32;59.02;96298.02;103755;1282;75455;-36
2023/11/04 04:57:01;;;;;;;1.50;0.70;;;;;;;18.32;58.96;96299.27;103867;1282;66140;-39
2023/11/04 04:59:28;;;;;;;1.20;1.00;;;;;;;18.31;58.94;96297.02;103674;1280;72604;-38
2023/11/04 05:01:56;;;;;;;1.10;1.00;;;;;;;18.31;58.99;96305.98;103625;1282;62075;-39
2023/11/04 05:04:23;;;;;;;1.10;0.90;;;;;;;18.32;58.94;96311.02;103735;1280;62120;-39
2023/11/04 05:06:49;;;;;;;1.60;1.10;;;;;;;18.31;59.00;96319.39;103864;1280;75443;-39
2023/11/04 05:09:17;;;;;;;1.00;0.90;;;;;;;18.31;58.94;96318.46;103794;1280;66129;-39
2023/11/04 05:11:44;;;;;;;0.90;0.90;;;;;;;18.31;59.00;96322.95;103856;1280;72697;-37
2023/11/04 05:14:11;;;;;;;0.60;0.60;;;;;;;18.31;58.87;96318.00;103798;1282;62101;-37
2023/11/04 05:16:37;;;;;;;0.90;0.90;;;;;;;18.31;59.00;96315.21;103876;1282;62101;-38
2023/11/04 05:19:04;;;;;;;1.10;0.90;;;;;;;18.30;58.96;96327.21;103856;1280;75365;-37
2023/11/04 05:21:31;;;;;;;1.00;0.90;;;;;;;18.30;58.91;96338.05;103871;1280;66013;-37
2023/11/04 05:23:58;;;;;;;0.80;0.80;;;;;;;18.30;58.98;96358.73;103828;1280;72705;-37
2023/11/04 05:26:25;;;;;;;1.50;0.90;;;;;;;18.31;59.04;96371.04;103463;1282;62107;-37
2023/11/04 05:28:51;;;;;;;1.10;0.90;;;;;;;18.30;59.01;96375.77;103427;1282;62098;-37
2023/11/04 05:31:18;;;;;;;1.60;1.20;;;;;;;18.30;59.00;96383.42;103474;1282;75452;-37
2023/11/04 05:33:45;;;;;;;0.80;0.80;;;;;;;18.30;59.04;96378.77;103645;1282;65969;-37
2023/11/04 05:36:13;;;;;;;1.20;1.00;;;;;;;18.30;58.92;96381.02;103555;1280;72878;-37
2023/11/04 05:38:40;;;;;;;0.80;0.70;;;;;;;18.30;59.04;96378.54;103737;1282;62106;-37
2023/11/04 05:41:06;;;;;;;2.10;0.80;;;;;;;18.29;58.97;96387.60;103886;1280;62239;-37
2023/11/04 05:43:35;;;;;;;1.00;0.90;;;;;;;18.29;58.90;96394.03;103596;1280;75242;-37
2023/11/04 05:46:03;;;;;;;1.20;0.80;;;;;;;18.29;58.96;96384.43;103469;1280;66200;-37
2023/11/04 05:48:31;;;;;;;0.90;0.90;;;;;;;18.29;58.93;96382.33;103586;1280;72721;-37
2023/11/04 05:50:58;;;;;;;0.80;0.80;;;;;;;18.29;58.88;96376.44;103553;1283;62153;-38
2023/11/04 05:53:24;;;;;;;1.00;0.90;;;;;;;18.29;58.95;96369.94;103429;1280;62133;-37
2023/11/04 05:55:51;;;;;;;0.90;0.80;;;;;;;18.28;58.81;96369.77;103636;1282;75226;-37
2023/11/04 05:58:17;;;;;;;1.40;1.10;;;;;;;18.28;58.85;96380.69;103558;1282;65858;-37
2023/11/04 06:00:44;;;;;;;1.10;1.00;;;;;;;18.28;58.90;96391.14;103458;1280;72487;-37
2023/11/04 06:03:11;;;;;;;1.00;0.90;;;;;;;18.28;58.87;96400.29;103437;1282;62120;-37
2023/11/04 06:05:37;;;;;;;1.40;1.00;;;;;;;18.28;58.87;96398.04;103936;1279;62088;-37
2023/11/04 06:08:04;;;;;;;0.90;0.90;;;;;;;18.28;58.95;96389.75;103529;1281;75487;-39
2023/11/04 06:10:31;;;;;;;1.20;1.10;;;;;;;18.28;58.92;96393.09;103800;1282;66225;-37
2023/11/04 06:12:57;;;;;;;1.10;1.00;;;;;;;18.28;58.90;96396.48;103492;1279;72722;-40
2023/11/04 06:15:24;;;;;;;1.00;0.90;;;;;;;18.28;58.90;96395.86;103999;1282;62015;-39
2023/11/04 06:17:51;;;;;;;1.50;1.10;;;;;;;18.28;58.78;96394.94;103484;1280;62111;-37
2023/11/04 06:20:18;;;;;;;0.90;0.90;;;;;;;18.28;58.87;96392.30;103577;1283;75248;-38
2023/11/04 06:22:44;;;;;;;0.90;0.90;;;;;;;18.28;58.87;96397.11;103893;1283;66241;-39
2023/11/04 06:25:11;;;;;;;1.00;0.90;;;;;;;18.28;58.85;96402.76;104668;1280;72721;-38
2023/11/04 06:27:38;;;;;;;1.20;1.10;;;;;;;18.28;58.84;96404.00;104666;1282;62201;-37
2023/11/04 06:30:07;;;;;;;0.80;0.80;;;;;;;18.28;58.79;96406.23;103753;1279;62112;-39
2023/11/04 06:32:33;;;;;;;1.20;0.90;;;;;;;18.28;58.85;96395.25;103623;1282;75360;-39
2023/11/04 06:35:00;;;;;;;1.30;1.10;;;;;;;18.28;58.84;96404.71;103638;1280;66014;-38
2023/11/04 06:37:27;;;;;;;1.00;1.00;;;;;;;18.29;58.85;96395.19;103827;1282;72692;-37
2023/11/04 06:39:54;;;;;;;1.10;1.00;;;;;;;18.29;58.79;96389.61;103625;1283;62065;-38
2023/11/04 06:42:26;;;;;;;1.10;1.00;;;;;;;18.29;58.77;96389.38;103529;1283;62548;-38
2023/11/04 06:44:54;;;;;;;1.60;1.10;;;;;;;18.29;58.79;96391.23;103454;1282;75312;-39
2023/11/04 06:47:22;;;;;;;0.80;0.80;;;;;;;18.28;58.77;96393.79;103770;1280;66319;-38
2023/11/04 06:49:49;;;;;;;1.10;1.00;;;;;;;18.29;58.78;96392.55;103771;1282;72446;-38
2023/11/04 06:52:16;;;;;;;1.70;1.20;;;;;;;18.28;58.71;96393.48;103679;1283;62108;-37
2023/11/04 06:54:43;;;;;;;1.30;0.70;;;;;;;18.28;58.76;96389.73;103865;1280;62126;-37
2023/11/04 06:57:09;;;;;;;1.10;1.00;;;;;;;18.29;58.73;96402.70;103840;1282;75432;-37
2023/11/04 06:59:40;;;;;;;1.10;1.00;;;;;;;18.29;58.71;96407.58;103768;1280;65980;-37
2023/11/04 07:02:07;;;;;;;1.30;1.00;;;;;;;18.29;58.70;96416.86;103673;1285;72344;-37
2023/11/04 07:04:34;;;;;;;1.10;1.00;;;;;;;18.29;58.79;96425.54;103535;1282;62101;-38
2023/11/04 07:07:01;;;;;;;0.80;0.80;;;;;;;18.29;58.72;96429.33;103456;1283;62078;-37
2023/11/04 07:09:33;;;;;;;1.00;1.00;;;;;;;18.29;58.71;96432.42;103437;1280;75497;-38
2023/11/04 07:11:59;;;;;;;1.10;1.00;;;;;;;18.29;58.68;96435.53;103587;1280;66325;-36
2023/11/04 07:14:26;;;;;;;1.20;1.00;;;;;;;18.30;58.69;96437.63;103438;1280;72375;-41
2023/11/04 07:16:55;;;;;;;1.00;0.90;;;;;;;18.29;58.73;96434.14;103514;1283;62127;-37
2023/11/04 07:19:22;;;;;;;1.00;0.90;;;;;;;18.29;58.67;96423.84;103735;1282;62203;-38
2023/11/04 07:21:49;;;;;;;0.80;0.80;;;;;;;18.29;58.70;96416.95;103484;1282;76410;-39
2023/11/04 07:24:16;;;;;;;1.10;1.00;;;;;;;18.28;58.66;96420.18;103776;1283;66014;-36
2023/11/04 07:26:42;;;;;;;1.10;1.00;;;;;;;18.29;58.71;96421.51;103468;1283;73744;-39
2023/11/04 07:29:10;;;;;;;0.90;0.90;;;;;;;18.29;58.67;96418.19;103615;1280;62142;-37
2023/11/04 07:31:37;;;;;;;1.10;0.80;;;;;;;18.29;58.64;96419.42;103788;1280;62203;-36
2023/11/04 07:34:04;;;;;;;0.80;0.80;;;;;;;18.29;58.63;96421.83;103470;1282;76388;-37
2023/11/04 07:36:31;;;;;;;0.90;0.80;;;;;;;18.29;58.63;96426.63;103448;1285;66200;-37
2023/11/04 07:38:57;;;;;;;1.10;1.00;;;;;;;18.29;58.69;96429.41;103595;1283;72743;-37
2023/11/04 07:41:24;;;;;;;1.00;0.90;;;;;;;18.29;58.60;96428.48;103847;1282;62021;-37
2023/11/04 07:43:50;;;;;;;1.00;0.90;;;;;;;18.29;58.74;96433.14;103525;1282;62134;-38
2023/11/04 07:46:17;;;;;;;1.20;0.90;;;;;;;18.30;58.61;96437.40;103517;1282;75725;-40
2023/11/04 07:48:43;;;;;;;1.40;1.10;;;;;;;18.30;58.65;96437.40;103440;1283;65083;-38
2023/11/04 07:51:10;;;;;;;1.30;1.00;;;;;;;18.30;58.54;96439.41;103564;1282;73112;-37
2023/11/04 07:53:37;;;;;;;1.10;1.00;;;;;;;18.30;58.60;96439.19;103508;1280;62100;-37
2023/11/04 07:56:05;;;;;;;1.20;0.80;;;;;;;18.30;58.62;96431.83;103797;1280;62104;-38
2023/11/04 07:58:31;;;;;;;1.00;0.80;;;;;;;18.30;58.63;96437.23;103879;1282;75266;-47
2023/11/04 08:00:58;;;;;;;1.20;1.10;;;;;;;18.30;58.61;96440.57;103735;1282;66176;-38
2023/11/04 08:03:25;;;;;;;1.10;0.90;;;;;;;18.30;58.57;96434.30;103433;1280;73718;-38
2023/11/04 08:05:52;;;;;;;0.80;0.80;;;;;;;18.30;58.55;96431.66;103428;1293;62188;-38
2023/11/04 08:08:19;;;;;;;1.10;1.00;;;;;;;18.30;58.62;96428.27;103554;1280;62216;-39
2023/11/04 08:10:46;;;;;;;0.90;0.90;;;;;;;18.31;58.53;96427.02;103602;1280;75169;-38
2023/11/04 08:13:12;;;;;;;1.10;0.90;;;;;;;18.31;58.57;96427.80;103555;1280;66230;-37
2023/11/04 08:15:39;;;;;;;1.10;0.90;;;;;;;18.31;58.61;96424.48;103398;1282;72537;-37
2023/11/04 08:18:06;;;;;;;1.10;1.00;;;;;;;18.31;58.49;96425.01;103542;1282;62181;-37
2023/11/04 08:20:33;;;;;;;0.90;0.80;;;;;;;18.31;58.50;96426.25;103781;1282;62199;-38
2023/11/04 08:22:59;;;;;;;1.20;1.10;;;;;;;18.31;58.59;96420.91;103569;1280;62218;-37
2023/11/04 08:25:26;;;;;;;1.30;1.00;;;;;;;18.31;58.57;96415.33;103775;1282;62133;-37
2023/11/04 08:27:52;;;;;;;1.10;1.00;;;;;;;18.31;58.61;96413.93;103679;1282;72779;-38
2023/11/04 08:30:19;;;;;;;1.50;1.10;;;;;;;18.31;58.52;96402.64;104297;1282;62008;-38
2023/11/04 08:32:47;;;;;;;1.30;1.00;;;;;;;18.32;58.55;96407.98;103834;1281;62130;-37
2023/11/04 08:35:14;;;;;;;1.00;0.90;;;;;;;18.32;58.55;96417.19;103565;1280;75431;-38
2023/11/04 08:37:41;;;;;;;1.20;1.00;;;;;;;18.32;58.44;96421.30;103537;1285;65378;-38
2023/11/04 08:40:08;;;;;;;0.80;0.80;;;;;;;18.32;58.55;96421.07;103489;1282;72686;-37
2023/11/04 08:42:36;;;;;;;1.40;1.10;;;;;;;18.32;58.57;96419.98;103648;1285;62072;-38
2023/11/04 08:45:03;;;;;;;0.90;0.90;;;;;;;18.32;58.49;96422.85;103517;1283;62219;-37
2023/11/04 08:47:32;;;;;;;1.20;1.10;;;;;;;18.32;58.55;96419.21;103549;1283;75449;-38
2023/11/04 08:50:00;;;;;;;1.10;0.90;;;;;;;18.32;58.50;96425.79;103854;1280;65897;-37
2023/11/04 08:52:27;;;;;;;1.00;1.00;;;;;;;18.32;58.48;96419.44;103702;1285;189647;-38
2023/11/04 08:54:54;;;;;;;1.20;0.90;;;;;;;18.32;58.45;96417.66;103540;1282;62096;-38
2023/11/04 08:57:21;;;;;;;1.40;1.20;;;;;;;18.32;58.51;96415.81;103483;1280;62203;-38
2023/11/04 08:59:48;;;;;;;1.10;0.90;;;;;;;18.33;58.50;96419.14;103426;1282;75686;-37
2023/11/04 09:02:14;;;;;;;1.20;1.10;;;;;;;18.32;58.47;96423.15;103506;1285;66052;-39
2023/11/04 09:04:43;;;;;;;1.40;1.00;;;;;;;18.33;58.43;96417.83;104056;1280;72477;-39
2023/11/04 09:07:18;;;;;;;1.00;1.00;;;;;;;18.32;58.41;96407.43;104664;1283;62137;-39
2023/11/04 09:09:45;;;;;;;0.90;0.90;;;;;;;18.33;58.39;96400.63;103738;1282;62177;-38
2023/11/04 09:12:12;;;;;;;1.50;1.00;;;;;;;18.33;58.38;96409.92;103800;1280;75385;-39
2023/11/04 09:14:42;;;;;;;1.30;1.20;;;;;;;18.34;58.37;96408.45;103811;1284;67328;-38
2023/11/04 09:17:09;;;;;;;1.30;1.00;;;;;;;18.34;58.44;96397.77;103758;1280;72744;-37
2023/11/04 09:19:35;;;;;;;1.00;1.00;;;;;;;18.34;58.38;96388.17;103806;1282;62011;-38
2023/11/04 09:22:02;;;;;;;1.30;1.10;;;;;;;18.34;58.39;96384.30;103869;1285;62226;-38
2023/11/04 09:24:30;;;;;;;2.80;0.90;;;;;;;18.34;58.37;96372.29;103740;1280;75428;-39
2023/11/04 09:26:56;;;;;;;1.10;1.00;;;;;;;18.35;58.40;96363.01;103558;1283;66355;-38
2023/11/04 09:29:23;;;;;;;1.00;0.90;;;;;;;18.35;58.41;96356.02;103647;1284;73591;-38
2023/11/04 09:31:54;;;;;;;1.20;1.10;;;;;;;18.34;58.30;96350.61;103542;1293;62104;-39
2023/11/04 09:34:20;;;;;;;1.30;1.10;;;;;;;18.34;58.34;96348.83;103787;1282;62120;-38
2023/11/04 09:36:47;;;;;;;1.10;1.00;;;;;;;18.35;58.33;96346.35;103820;1286;75294;-38
2023/11/04 09:39:16;;;;;;;1.30;1.10;;;;;;;18.35;58.35;96338.00;103760;1283;66303;-37
2023/11/04 09:41:42;;;;;;;0.90;0.90;;;;;;;18.35;58.34;96335.59;103470;1282;72463;-37
2023/11/04 09:44:10;;;;;;;1.60;1.20;;;;;;;18.35;58.33;96334.81;103476;1283;62159;-38
2023/11/04 09:46:37;;;;;;;1.10;1.00;;;;;;;18.36;58.33;96331.65;103381;1280;62204;-36
2023/11/04 09:49:04;;;;;;;1.10;1.00;;;;;;;18.35;58.33;96328.00;103505;1283;75544;-38
2023/11/04 09:51:31;;;;;;;1.10;0.90;;;;;;;18.35;58.26;96318.25;103801;1283;66077;-37
2023/11/04 09:53:58;;;;;;;1.20;1.10;;;;;;;18.35;58.35;96307.64;103752;1287;72480;-37
2023/11/04 09:56:25;;;;;;;1.20;1.10;;;;;;;18.35;58.30;96298.88;103783;1285;62101;-37
2023/11/04 09:58:52;;;;;;;1.10;1.00;;;;;;;18.35;58.26;96305.23;103579;1283;62209;-38
2023/11/04 10:01:18;;;;;;;1.00;0.80;;;;;;;18.35;58.33;96307.16;103472;1281;75455;-36
2023/11/04 10:03:47;;;;;;;1.20;1.00;;;;;;;18.35;58.36;96307.56;103722;1283;66307;-39
2023/11/04 10:06:15;;;;;;;1.10;1.00;;;;;;;18.35;58.36;96315.92;103817;1282;72421;-37
2023/11/04 10:08:46;;;;;;;1.00;0.90;;;;;;;18.35;58.36;96320.64;103642;1282;62078;-37
2023/11/04 10:11:13;;;;;;;1.40;1.00;;;;;;;18.35;58.25;96326.45;103523;1280;62082;-38
2023/11/04 10:13:39;;;;;;;1.20;0.90;;;;;;;18.36;58.30;96331.42;103394;1285;75465;-38
2023/11/04 10:16:07;;;;;;;1.00;0.90;;;;;;;18.35;58.39;96329.77;103780;1282;66658;-37
2023/11/04 10:18:34;;;;;;;1.40;0.90;;;;;;;18.36;58.21;96339.86;103749;1282;72620;-37
2023/11/04 10:21:01;;;;;;;1.50;1.20;;;;;;;18.35;58.29;96344.34;103642;1284;62117;-37
2023/11/04 10:23:29;;;;;;;1.60;1.00;;;;;;;18.36;58.20;96338.92;103455;1284;62092;-37
2023/11/04 10:26:03;;;;;;;1.10;1.00;;;;;;;18.36;58.29;96339.55;103463;1284;75411;-37
2023/11/04 10:28:35;;;;;;;1.00;1.00;;;;;;;18.36;58.26;96335.14;103519;1282;67433;-37
2023/11/04 10:31:06;;;;;;;0.80;0.80;;;;;;;18.36;58.27;96336.39;103519;1282;72501;-37
2023/11/04 10:33:37;;;;;;;0.90;0.90;;;;;;;18.36;58.25;96338.70;103597;1288;62114;-37
2023/11/04 10:36:06;;;;;;;0.80;0.80;;;;;;;18.36;58.25;96335.45;103701;1285;62145;-37
2023/11/04 10:38:34;;;;;;;1.10;1.00;;;;;;;18.36;58.34;96332.74;103515;1280;74473;-38
2023/11/04 10:41:01;;;;;;;1.10;0.90;;;;;;;18.37;58.34;96324.70;103529;1283;67243;-37
2023/11/04 10:43:28;;;;;;;1.20;1.10;;;;;;;18.37;58.26;96321.66;103784;1282;71648;-37
2023/11/04 10:46:02;;;;;;;1.00;0.90;;;;;;;18.37;58.27;96322.99;103588;1286;62140;-37
2023/11/04 10:48:39;;;;;;;1.20;1.10;;;;;;;18.38;58.16;96323.37;103538;1280;62098;-37
2023/11/04 10:51:31;;;;;;;1.20;1.10;;;;;;;18.38;58.12;96323.21;103477;1285;76511;-37
2023/11/04 10:54:06;;;;;;;1.20;1.10;;;;;;;18.38;58.15;96319.04;103482;1280;65956;-37
2023/11/04 10:56:37;;;;;;;1.20;0.80;;;;;;;18.38;58.20;96311.30;103581;1283;71220;-37
2023/11/04 10:59:07;;;;;;;1.20;1.10;;;;;;;18.38;58.16;96304.40;103472;1283;62228;-37
2023/11/04 11:01:37;;;;;;;1.90;0.90;;;;;;;18.38;58.21;96309.59;103519;1279;62145;-37
2023/11/04 11:04:04;;;;;;;1.00;1.00;;;;;;;18.38;58.14;96305.56;103444;1283;76296;-39
2023/11/04 11:06:31;;;;;;;0.90;0.90;;;;;;;18.38;58.18;96299.60;103533;1285;66171;-37
2023/11/04 11:09:00;;;;;;;0.90;0.90;;;;;;;18.38;58.13;96297.20;103740;1286;72606;-37
2023/11/04 11:11:48;;;;;;;1.80;1.00;;;;;;;18.38;58.15;96298.05;103453;1286;62009;-37
2023/11/04 11:14:15;;;;;;;1.00;0.90;;;;;;;18.37;58.22;96301.54;103529;1285;62187;-38
2023/11/04 11:16:41;;;;;;;1.10;0.90;;;;;;;18.38;58.11;96304.94;103473;1282;75378;-37
2023/11/04 11:19:09;;;;;;;1.30;1.20;;;;;;;18.37;58.20;96305.55;103665;1280;66003;-38
2023/11/04 11:21:49;;;;;;;1.10;1.00;;;;;;;18.38;58.21;96304.40;103875;1280;72466;-38
2023/11/04 11:24:20;;;;;;;1.20;1.10;;;;;;;18.37;58.20;96307.34;103636;1285;62104;-37